Time;durP1;ratioP1;P1;durP2;ratioP2;P2;SDS_P1;SDS_P2;PMS_P1;PMS_P2;Temp;Humidity;BMP_temperature;BMP_pressure;BME280_temperature;BME280_humidity;BME280_pressure;Samples;Min_cycle;Max_cycle;Signal;HPM_P1;HPM_P2
2021/08/31 00:00:38;;;;;;;;;9.25;9.00;;;;;;;;6305070;22;45334;-72
2021/08/31 00:03:03;;;;;;;;;11.25;11.00;;;;;;;;6304494;22;45448;-72
2021/08/31 00:05:28;;;;;;;;;15.25;11.25;;;;;;;;6304179;22;45420;-72
2021/08/31 00:07:53;;;;;;;;;14.50;12.00;;;;;;;;6304337;22;45392;-72
2021/08/31 00:10:18;;;;;;;;;10.50;10.00;;;;;;;;6305180;22;45214;-73
2021/08/31 00:12:44;;;;;;;;;13.25;12.25;;;;;;;;6305196;22;45399;-72
2021/08/31 00:15:10;;;;;;;;;14.00;11.75;;;;;;;;6304057;22;46876;-72
2021/08/31 00:17:35;;;;;;;;;10.00;7.25;;;;;;;;6276847;22;45282;-73
2021/08/31 00:20:01;;;;;;;;;12.00;9.00;;;;;;;;6304892;22;45662;-72
2021/08/31 00:22:26;;;;;;;;;7.50;6.50;;;;;;;;6304446;22;45339;-72
2021/08/31 00:24:51;;;;;;;;;12.25;11.00;;;;;;;;6304663;22;46347;-71
2021/08/31 00:27:16;;;;;;;;;9.50;9.50;;;;;;;;6304638;22;45254;-72
2021/08/31 00:29:41;;;;;;;;;10.75;9.50;;;;;;;;6303240;22;45507;-73
2021/08/31 00:32:07;;;;;;;;;13.00;12.00;;;;;;;;6276884;22;45455;-72
2021/08/31 00:34:32;;;;;;;;;10.50;10.50;;;;;;;;6304361;22;45361;-72
2021/08/31 00:36:58;;;;;;;;;15.25;11.25;;;;;;;;6304915;22;45285;-72
2021/08/31 00:39:23;;;;;;;;;11.00;9.75;;;;;;;;6277416;22;45371;-73
2021/08/31 00:41:48;;;;;;;;;10.75;8.50;;;;;;;;6304486;22;45237;-72
2021/08/31 00:44:20;;;;;;;;;13.25;11.25;;;;;;;;6304289;22;47157;-72
2021/08/31 00:46:47;;;;;;;;;9.00;6.00;;;;;;;;6304503;22;45364;-72
2021/08/31 00:49:12;;;;;;;;;9.00;7.25;;;;;;;;6304624;22;45335;-72
2021/08/31 00:51:37;;;;;;;;;9.25;8.00;;;;;;;;6304642;22;45342;-72
2021/08/31 00:54:03;;;;;;;;;7.50;6.25;;;;;;;;6304189;22;46524;-72
2021/08/31 00:56:28;;;;;;;;;10.25;9.25;;;;;;;;6304311;22;45295;-72
2021/08/31 00:58:54;;;;;;;;;9.00;9.00;;;;;;;;6304700;22;45442;-72
2021/08/31 01:01:19;;;;;;;;;11.00;9.00;;;;;;;;6304369;22;45411;-72
2021/08/31 01:03:45;;;;;;;;;9.00;6.75;;;;;;;;6303889;22;47375;-72
2021/08/31 01:06:11;;;;;;;;;8.00;7.00;;;;;;;;6304774;22;45277;-72
2021/08/31 01:08:36;;;;;;;;;7.25;7.00;;;;;;;;6304367;22;45276;-72
2021/08/31 01:11:02;;;;;;;;;9.25;7.25;;;;;;;;6304082;22;45432;-72
2021/08/31 01:13:28;;;;;;;;;6.75;6.75;;;;;;;;6304240;22;45957;-72
2021/08/31 01:15:53;;;;;;;;;7.75;5.75;;;;;;;;6304797;22;45171;-72
2021/08/31 01:18:22;;;;;;;;;8.25;6.75;;;;;;;;6303897;22;45524;-72
2021/08/31 01:20:56;;;;;;;;;6.00;6.00;;;;;;;;6304445;22;45491;-72
2021/08/31 01:23:21;;;;;;;;;10.50;7.50;;;;;;;;6304382;22;46046;-71
2021/08/31 01:25:47;;;;;;;;;6.50;5.50;;;;;;;;6304896;22;45278;-72
2021/08/31 01:28:16;;;;;;;;;8.75;6.50;;;;;;;;6304369;22;45380;-73
2021/08/31 01:30:42;;;;;;;;;8.50;8.00;;;;;;;;6304275;22;45190;-72
2021/08/31 01:33:08;;;;;;;;;9.50;7.00;;;;;;;;6303713;22;47174;-72
2021/08/31 01:35:33;;;;;;;;;7.75;5.00;;;;;;;;6304248;22;45418;-72
2021/08/31 01:37:59;;;;;;;;;7.50;6.25;;;;;;;;6304468;22;45293;-72
2021/08/31 01:40:24;;;;;;;;;6.25;5.00;;;;;;;;6276683;22;45500;-72
2021/08/31 01:42:49;;;;;;;;;7.00;7.00;;;;;;;;6304392;22;46319;-72
2021/08/31 01:45:14;;;;;;;;;7.25;7.25;;;;;;;;6276712;22;45444;-72
2021/08/31 01:47:39;;;;;;;;;8.25;8.25;;;;;;;;6304095;22;45305;-72
2021/08/31 01:50:05;;;;;;;;;8.75;7.25;;;;;;;;6304567;22;45363;-72
2021/08/31 01:52:30;;;;;;;;;5.75;5.75;;;;;;;;6304000;22;46009;-72
2021/08/31 01:54:55;;;;;;;;;6.75;6.75;;;;;;;;6304257;22;45220;-72
2021/08/31 01:57:21;;;;;;;;;7.50;5.50;;;;;;;;6304558;22;45289;-72
2021/08/31 01:59:46;;;;;;;;;12.75;8.00;;;;;;;;6304407;22;45434;-71
2021/08/31 02:02:11;;;;;;;;;7.00;7.00;;;;;;;;6303948;22;46075;-71
2021/08/31 02:04:36;;;;;;;;;8.50;6.50;;;;;;;;6304496;22;45404;-71
2021/08/31 02:07:01;;;;;;;;;9.00;7.00;;;;;;;;6304441;22;45313;-72
2021/08/31 02:09:27;;;;;;;;;6.25;6.25;;;;;;;;6303974;22;45427;-71
2021/08/31 02:11:52;;;;;;;;;6.75;6.75;;;;;;;;6303477;22;46465;-73
2021/08/31 02:14:17;;;;;;;;;8.00;7.00;;;;;;;;6304244;22;45206;-72
2021/08/31 02:16:42;;;;;;;;;9.50;7.25;;;;;;;;6304097;22;45320;-72
2021/08/31 02:19:07;;;;;;;;;9.75;8.00;;;;;;;;6304665;22;45299;-72
2021/08/31 02:21:33;;;;;;;;;11.25;7.25;;;;;;;;6303697;22;46074;-72
2021/08/31 02:23:58;;;;;;;;;7.00;6.50;;;;;;;;6276257;22;45708;-72
2021/08/31 02:26:23;;;;;;;;;9.00;6.50;;;;;;;;6304951;22;45423;-72
2021/08/31 02:28:48;;;;;;;;;9.50;6.00;;;;;;;;6276421;22;45420;-72
2021/08/31 02:31:14;;;;;;;;;9.00;6.50;;;;;;;;6303457;22;45966;-72
2021/08/31 02:33:39;;;;;;;;;5.75;5.00;;;;;;;;6276508;22;45281;-72
2021/08/31 02:36:04;;;;;;;;;8.25;7.50;;;;;;;;6304394;22;45177;-72
2021/08/31 02:38:29;;;;;;;;;10.00;7.25;;;;;;;;6276405;22;45344;-72
2021/08/31 02:40:55;;;;;;;;;8.00;7.00;;;;;;;;6303793;22;46515;-72
2021/08/31 02:43:20;;;;;;;;;11.00;9.75;;;;;;;;6303840;22;45596;-72
2021/08/31 02:45:45;;;;;;;;;6.75;6.75;;;;;;;;6303957;22;45265;-72
2021/08/31 02:48:10;;;;;;;;;7.75;6.25;;;;;;;;6276113;22;45205;-72
2021/08/31 02:50:36;;;;;;;;;6.25;6.25;;;;;;;;6303307;22;46067;-72
2021/08/31 02:53:01;;;;;;;;;9.00;8.50;;;;;;;;6303410;22;45198;-71
2021/08/31 02:55:26;;;;;;;;;5.75;5.75;;;;;;;;6304364;22;45512;-72
2021/08/31 02:57:51;;;;;;;;;10.00;8.50;;;;;;;;6303662;22;45130;-72
2021/08/31 03:00:19;;;;;;;;;9.50;7.00;;;;;;;;6302876;22;45768;-72
2021/08/31 03:02:45;;;;;;;;;10.50;6.75;;;;;;;;6303752;22;45336;-71
2021/08/31 03:05:10;;;;;;;;;10.50;8.25;;;;;;;;6303797;22;45225;-72
2021/08/31 03:07:36;;;;;;;;;10.25;10.25;;;;;;;;6303439;22;45621;-72
2021/08/31 03:10:01;;;;;;;;;13.25;9.00;;;;;;;;6303993;22;46192;-72
2021/08/31 03:12:26;;;;;;;;;13.00;9.75;;;;;;;;6303794;22;45382;-72
2021/08/31 03:14:52;;;;;;;;;10.75;10.75;;;;;;;;6303585;22;45371;-72
2021/08/31 03:17:17;;;;;;;;;9.25;7.75;;;;;;;;6302378;22;45422;-72
2021/08/31 03:19:42;;;;;;;;;10.25;9.00;;;;;;;;6303080;22;46985;-72
2021/08/31 03:22:09;;;;;;;;;7.50;7.25;;;;;;;;6303623;22;45439;-72
2021/08/31 03:24:35;;;;;;;;;9.25;7.25;;;;;;;;6303460;22;45237;-71
2021/08/31 03:27:00;;;;;;;;;9.00;8.75;;;;;;;;6303163;22;45304;-72
2021/08/31 03:29:25;;;;;;;;;5.75;5.50;;;;;;;;6303024;22;45983;-71
2021/08/31 03:31:50;;;;;;;;;14.50;10.50;;;;;;;;6303497;22;45324;-73
2021/08/31 03:34:16;;;;;;;;;9.00;9.00;;;;;;;;6303780;22;45418;-73
2021/08/31 03:36:41;;;;;;;;;8.75;8.00;;;;;;;;6303299;22;45494;-72
2021/08/31 03:39:06;;;;;;;;;9.25;8.00;;;;;;;;6303508;22;45414;-73
2021/08/31 03:41:32;;;;;;;;;11.50;11.00;;;;;;;;6303530;22;45260;-73
2021/08/31 03:43:57;;;;;;;;;11.00;9.50;;;;;;;;6302879;22;45301;-73
2021/08/31 03:46:22;;;;;;;;;10.50;10.00;;;;;;;;6303882;22;45313;-73
2021/08/31 03:48:47;;;;;;;;;9.00;9.00;;;;;;;;6303685;22;46083;-71
2021/08/31 03:51:12;;;;;;;;;14.50;13.00;;;;;;;;6303493;22;45260;-71
2021/08/31 03:53:38;;;;;;;;;13.00;11.75;;;;;;;;6302490;22;45379;-71
2021/08/31 03:56:03;;;;;;;;;16.25;12.75;;;;;;;;6303077;22;45350;-71
2021/08/31 03:58:28;;;;;;;;;13.25;12.25;;;;;;;;6302365;22;46310;-72
2021/08/31 04:00:53;;;;;;;;;14.50;11.50;;;;;;;;6303638;22;45493;-71
2021/08/31 04:03:19;;;;;;;;;16.00;12.25;;;;;;;;6303077;22;45375;-72
2021/08/31 04:05:44;;;;;;;;;14.50;11.50;;;;;;;;6304669;22;45461;-72
2021/08/31 04:08:09;;;;;;;;;16.25;11.00;;;;;;;;6304535;22;46426;-71
2021/08/31 04:10:34;;;;;;;;;17.50;15.50;;;;;;;;6303826;22;45341;-72
2021/08/31 04:13:00;;;;;;;;;14.75;12.25;;;;;;;;6302802;22;45487;-72
2021/08/31 04:15:25;;;;;;;;;10.00;8.75;;;;;;;;6304697;22;45280;-72
2021/08/31 04:17:50;;;;;;;;;14.25;11.50;;;;;;;;6304555;22;45419;-72
2021/08/31 04:20:15;;;;;;;;;14.75;14.00;;;;;;;;6304123;22;45283;-72
2021/08/31 04:22:40;;;;;;;;;16.00;16.00;;;;;;;;6304328;22;45338;-72
2021/08/31 04:25:06;;;;;;;;;14.25;13.25;;;;;;;;6304089;22;45270;-72
2021/08/31 04:27:31;;;;;;;;;19.00;16.25;;;;;;;;6303013;22;46426;-73
2021/08/31 04:29:56;;;;;;;;;19.25;17.00;;;;;;;;6303981;22;45301;-72
2021/08/31 04:32:22;;;;;;;;;15.50;12.75;;;;;;;;6304378;22;45240;-72
2021/08/31 04:34:47;;;;;;;;;19.75;15.00;;;;;;;;6304169;22;45403;-72
2021/08/31 04:37:12;;;;;;;;;18.50;12.75;;;;;;;;6304177;22;45981;-72
2021/08/31 04:39:37;;;;;;;;;19.00;17.25;;;;;;;;6304204;22;45402;-72
2021/08/31 04:42:03;;;;;;;;;16.50;15.75;;;;;;;;6275610;22;45195;-72
2021/08/31 04:44:31;;;;;;;;;22.00;17.00;;;;;;;;6303677;22;45264;-72
2021/08/31 04:46:57;;;;;;;;;16.00;14.25;;;;;;;;6303890;22;46324;-72
2021/08/31 04:49:22;;;;;;;;;17.25;17.00;;;;;;;;6304263;22;45394;-73
2021/08/31 04:51:47;;;;;;;;;16.25;16.00;;;;;;;;6304281;22;45357;-73
2021/08/31 04:54:12;;;;;;;;;14.00;14.00;;;;;;;;6303608;22;45116;-73
2021/08/31 04:56:37;;;;;;;;;15.50;14.75;;;;;;;;6303007;22;45337;-73
2021/08/31 04:59:03;;;;;;;;;22.25;18.00;;;;;;;;6302020;22;45197;-73
2021/08/31 05:01:28;;;;;;;;;15.50;15.50;;;;;;;;6302741;22;45261;-69
2021/08/31 05:03:53;;;;;;;;;15.50;15.50;;;;;;;;6304230;22;45148;-70
2021/08/31 05:06:18;;;;;;;;;21.00;15.25;;;;;;;;6275540;22;45844;-71
2021/08/31 05:08:43;;;;;;;;;21.50;17.75;;;;;;;;6274987;22;45625;-70
2021/08/31 05:11:09;;;;;;;;;19.50;15.25;;;;;;;;6303694;22;45268;-71
2021/08/31 05:13:39;;;;;;;;;19.00;14.00;;;;;;;;6275792;22;45303;-72
2021/08/31 05:16:05;;;;;;;;;21.25;18.25;;;;;;;;6302703;22;47252;-71
2021/08/31 05:18:32;;;;;;;;;17.00;14.00;;;;;;;;6303359;22;45211;-70
2021/08/31 05:20:57;;;;;;;;;24.25;19.75;;;;;;;;6303237;22;45230;-71
2021/08/31 05:23:22;;;;;;;;;14.50;13.50;;;;;;;;6303845;22;45400;-71
2021/08/31 05:25:48;;;;;;;;;23.50;18.75;;;;;;;;6303631;22;45911;-69
2021/08/31 05:28:13;;;;;;;;;24.50;22.75;;;;;;;;6303566;22;45323;-72
2021/08/31 05:30:38;;;;;;;;;24.00;21.00;;;;;;;;6303069;22;45199;-71
2021/08/31 05:33:03;;;;;;;;;22.25;18.25;;;;;;;;6303638;22;45268;-71
2021/08/31 05:35:28;;;;;;;;;27.75;21.25;;;;;;;;6303257;22;46005;-69
2021/08/31 05:37:53;;;;;;;;;18.50;15.50;;;;;;;;6303440;22;45297;-71
2021/08/31 05:40:20;;;;;;;;;20.50;18.00;;;;;;;;6302973;22;45284;-72
2021/08/31 05:42:46;;;;;;;;;24.25;21.25;;;;;;;;6302756;22;45268;-72
2021/08/31 05:45:14;;;;;;;;;26.75;22.50;;;;;;;;6302019;22;46981;-72
2021/08/31 05:47:39;;;;;;;;;23.50;17.75;;;;;;;;6302368;22;45229;-72
2021/08/31 05:50:05;;;;;;;;;25.50;21.25;;;;;;;;6303097;22;45220;-72
2021/08/31 05:52:30;;;;;;;;;18.25;18.25;;;;;;;;6302907;22;45173;-72
2021/08/31 05:54:58;;;;;;;;;24.25;20.25;;;;;;;;6302527;22;46981;-72
2021/08/31 05:57:23;;;;;;;;;25.75;21.50;;;;;;;;6302848;22;45312;-72
2021/08/31 05:59:48;;;;;;;;;23.50;22.50;;;;;;;;6303727;22;45197;-72
2021/08/31 06:02:13;;;;;;;;;22.75;20.75;;;;;;;;6303689;22;45464;-72
2021/08/31 06:04:39;;;;;;;;;20.75;19.75;;;;;;;;6303196;22;47233;-72
2021/08/31 06:07:05;;;;;;;;;23.00;20.25;;;;;;;;6302872;22;45347;-72
2021/08/31 06:09:31;;;;;;;;;27.75;25.25;;;;;;;;6301904;22;45319;-72
2021/08/31 06:11:58;;;;;;;;;26.50;22.00;;;;;;;;6302255;22;45424;-72
2021/08/31 06:14:24;;;;;;;;;23.50;21.25;;;;;;;;6274613;22;46145;-72
2021/08/31 06:16:49;;;;;;;;;28.25;25.25;;;;;;;;6302664;22;45422;-72
2021/08/31 06:19:14;;;;;;;;;27.00;21.50;;;;;;;;6302589;22;45431;-72
2021/08/31 06:21:40;;;;;;;;;34.25;26.25;;;;;;;;6302416;22;45186;-72
2021/08/31 06:24:05;;;;;;;;;26.50;23.00;;;;;;;;6301670;22;46211;-72
2021/08/31 06:26:30;;;;;;;;;24.00;24.00;;;;;;;;6302124;22;45253;-72
2021/08/31 06:28:56;;;;;;;;;26.25;24.50;;;;;;;;6302278;22;45289;-72
2021/08/31 06:31:22;;;;;;;;;26.50;20.50;;;;;;;;6301925;22;45229;-72
2021/08/31 06:33:47;;;;;;;;;27.75;17.00;;;;;;;;6302282;22;46274;-72
2021/08/31 06:36:14;;;;;;;;;29.00;26.75;;;;;;;;6302372;22;45457;-71
2021/08/31 06:38:39;;;;;;;;;19.75;17.75;;;;;;;;6274196;22;45318;-72
2021/08/31 06:41:06;;;;;;;;;33.25;22.75;;;;;;;;6301717;22;45374;-73
2021/08/31 06:43:31;;;;;;;;;28.75;23.25;;;;;;;;6301943;22;46609;-73
2021/08/31 06:45:56;;;;;;;;;23.00;23.00;;;;;;;;6302779;22;45400;-72
2021/08/31 06:48:22;;;;;;;;;32.00;25.25;;;;;;;;6303134;22;45339;-72
2021/08/31 06:50:47;;;;;;;;;25.00;23.25;;;;;;;;6302182;22;45261;-72
2021/08/31 06:53:12;;;;;;;;;26.00;23.25;;;;;;;;6302151;22;45400;-72
2021/08/31 06:55:40;;;;;;;;;27.50;22.75;;;;;;;;6302738;22;45410;-72
2021/08/31 06:58:06;;;;;;;;;26.00;25.00;;;;;;;;6302724;22;45192;-72
2021/08/31 07:00:31;;;;;;;;;26.00;24.25;;;;;;;;6302989;22;45435;-72
2021/08/31 07:02:56;;;;;;;;;27.50;26.00;;;;;;;;6302530;22;46000;-72
2021/08/31 07:05:21;;;;;;;;;34.50;26.25;;;;;;;;6302315;22;45265;-71
2021/08/31 07:07:46;;;;;;;;;29.50;27.25;;;;;;;;6274080;22;45137;-72
2021/08/31 07:10:12;;;;;;;;;29.00;25.00;;;;;;;;6302154;22;45352;-72
2021/08/31 07:12:37;;;;;;;;;33.75;27.75;;;;;;;;6302470;22;45242;-73
2021/08/31 07:15:02;;;;;;;;;41.00;35.25;;;;;;;;6302948;22;45171;-72
2021/08/31 07:17:28;;;;;;;;;24.50;22.50;;;;;;;;6302715;22;45371;-72
2021/08/31 07:19:53;;;;;;;;;24.25;22.50;;;;;;;;6302360;22;45531;-71
2021/08/31 07:22:18;;;;;;;;;24.25;21.75;;;;;;;;6301629;22;45214;-72
2021/08/31 07:24:44;;;;;;;;;29.50;26.25;;;;;;;;6302929;22;45239;-71
2021/08/31 07:27:10;;;;;;;;;29.25;24.75;;;;;;;;6302765;22;45286;-72
2021/08/31 07:29:35;;;;;;;;;35.00;29.00;;;;;;;;6302159;22;45277;-72
2021/08/31 07:32:00;;;;;;;;;29.75;26.50;;;;;;;;6301283;22;45430;-72
2021/08/31 07:34:25;;;;;;;;;29.00;27.00;;;;;;;;6301437;22;45440;-72
2021/08/31 07:36:51;;;;;;;;;26.75;24.00;;;;;;;;6301339;22;45284;-72
2021/08/31 07:39:16;;;;;;;;;34.50;32.75;;;;;;;;6302569;22;45451;-72
2021/08/31 07:41:41;;;;;;;;;38.50;33.00;;;;;;;;6302469;22;47302;-72
2021/08/31 07:44:06;;;;;;;;;34.50;29.25;;;;;;;;6302596;22;45659;-72
2021/08/31 07:46:32;;;;;;;;;27.75;25.25;;;;;;;;6303326;22;45303;-72
2021/08/31 07:48:58;;;;;;;;;31.00;28.75;;;;;;;;6303572;22;45311;-72
2021/08/31 07:51:23;;;;;;;;;27.25;26.25;;;;;;;;6302748;22;46674;-71
2021/08/31 07:53:49;;;;;;;;;34.00;30.00;;;;;;;;6302986;22;45391;-72
2021/08/31 07:56:14;;;;;;;;;27.25;25.00;;;;;;;;6303206;22;45219;-72
2021/08/31 07:58:39;;;;;;;;;30.00;28.00;;;;;;;;6302569;22;45534;-71
2021/08/31 08:01:05;;;;;;;;;28.50;25.00;;;;;;;;6302738;22;47425;-72
2021/08/31 08:03:31;;;;;;;;;32.25;30.75;;;;;;;;6303503;22;45233;-71
2021/08/31 08:05:56;;;;;;;;;31.75;29.25;;;;;;;;6302764;22;45277;-71
2021/08/31 08:08:21;;;;;;;;;30.25;26.25;;;;;;;;6302965;22;45277;-73
2021/08/31 08:10:46;;;;;;;;;31.25;26.50;;;;;;;;6304771;22;46596;-72
2021/08/31 08:13:12;;;;;;;;;31.75;27.00;;;;;;;;6303493;22;45269;-72
2021/08/31 08:15:37;;;;;;;;;25.75;23.75;;;;;;;;6303820;22;45383;-72
2021/08/31 08:18:03;;;;;;;;;29.00;25.00;;;;;;;;6303635;22;45281;-72
2021/08/31 08:20:28;;;;;;;;;28.00;23.50;;;;;;;;6302582;22;46823;-73
2021/08/31 08:22:53;;;;;;;;;25.25;22.00;;;;;;;;6303718;22;45234;-72
2021/08/31 08:25:18;;;;;;;;;23.50;23.50;;;;;;;;6303668;22;45234;-71
2021/08/31 08:27:44;;;;;;;;;24.75;20.00;;;;;;;;6305878;22;45205;-72
2021/08/31 08:30:10;;;;;;;;;24.25;21.75;;;;;;;;6304321;22;45575;-72
2021/08/31 08:32:35;;;;;;;;;22.50;22.00;;;;;;;;6303294;22;45314;-72
2021/08/31 08:35:01;;;;;;;;;28.50;25.00;;;;;;;;6304789;22;45269;-71
2021/08/31 08:37:26;;;;;;;;;21.25;19.25;;;;;;;;6303883;22;45325;-72
2021/08/31 08:39:51;;;;;;;;;22.25;22.25;;;;;;;;6303833;22;46019;-72
2021/08/31 08:42:17;;;;;;;;;26.00;22.00;;;;;;;;6274956;22;46145;-73
2021/08/31 08:44:42;;;;;;;;;29.50;23.00;;;;;;;;6303401;22;45335;-73
2021/08/31 08:47:07;;;;;;;;;22.50;18.50;;;;;;;;6303029;22;45464;-72
2021/08/31 08:49:33;;;;;;;;;20.00;18.25;;;;;;;;6305521;22;45384;-71
2021/08/31 08:51:59;;;;;;;;;20.75;17.50;;;;;;;;6303142;22;45422;-73
2021/08/31 08:54:24;;;;;;;;;24.00;19.50;;;;;;;;6302958;22;45394;-73
2021/08/31 08:56:51;;;;;;;;;23.25;19.75;;;;;;;;6302617;22;45170;-72
2021/08/31 08:59:16;;;;;;;;;20.50;19.25;;;;;;;;6303022;22;46863;-71
2021/08/31 09:01:47;;;;;;;;;25.75;20.50;;;;;;;;6303240;22;45246;-72
2021/08/31 09:04:13;;;;;;;;;21.75;20.50;;;;;;;;6303451;22;45502;-71
2021/08/31 09:06:40;;;;;;;;;17.50;16.75;;;;;;;;6303467;22;45416;-73
2021/08/31 09:09:06;;;;;;;;;21.75;21.75;;;;;;;;6301909;22;46196;-72
2021/08/31 09:11:32;;;;;;;;;21.00;19.00;;;;;;;;6302211;22;45407;-72
2021/08/31 09:14:18;;;;;;;;;17.25;15.50;;;;;;;;6302548;22;45254;-71
2021/08/31 09:17:18;;;;;;;;;19.75;17.75;;;;;;;;6301624;22;45201;-71
2021/08/31 09:19:43;;;;;;;;;21.50;21.50;;;;;;;;6176647;23;46253;-72
2021/08/31 09:22:24;;;;;;;;;18.25;18.25;;;;;;;;6151652;23;45297;-71
2021/08/31 09:25:00;;;;;;;;;23.25;19.25;;;;;;;;6177791;23;45798;-73
2021/08/31 09:27:35;;;;;;;;;24.25;22.25;;;;;;;;6151943;23;45554;-72
2021/08/31 09:30:17;;;;;;;;;22.00;22.00;;;;;;;;6176833;23;45345;-73
2021/08/31 09:33:01;;;;;;;;;23.25;20.50;;;;;;;;6176081;23;45268;-72
2021/08/31 09:35:30;;;;;;;;;23.00;20.00;;;;;;;;6177174;23;45300;-73
2021/08/31 09:38:00;;;;;;;;;21.25;19.50;;;;;;;;6177127;23;45478;-71
2021/08/31 09:40:27;;;;;;;;;24.75;22.75;;;;;;;;6176244;23;45776;-72
2021/08/31 09:42:53;;;;;;;;;19.25;17.75;;;;;;;;6177448;23;45320;-72
2021/08/31 09:45:20;;;;;;;;;22.25;19.25;;;;;;;;6175932;23;45498;-72
2021/08/31 09:47:46;;;;;;;;;20.25;17.25;;;;;;;;6175729;23;45304;-72
2021/08/31 09:50:23;;;;;;;;;21.00;18.00;;;;;;;;6176652;23;45382;-72
2021/08/31 09:52:58;;;;;;;;;17.25;16.75;;;;;;;;6176423;23;45375;-73
2021/08/31 09:55:24;;;;;;;;;23.50;23.50;;;;;;;;6227519;22;45332;-72
2021/08/31 09:57:49;;;;;;;;;23.50;21.25;;;;;;;;6271368;22;45237;-73
2021/08/31 10:00:16;;;;;;;;;25.75;22.25;;;;;;;;6271136;22;45184;-72
2021/08/31 10:02:43;;;;;;;;;18.00;17.50;;;;;;;;6271030;22;45293;-73
2021/08/31 10:05:08;;;;;;;;;20.50;20.00;;;;;;;;6271853;22;45272;-72
2021/08/31 10:07:34;;;;;;;;;16.75;16.75;;;;;;;;6271145;22;45404;-72
2021/08/31 10:10:00;;;;;;;;;20.00;19.25;;;;;;;;6271096;22;45380;-73
2021/08/31 10:12:26;;;;;;;;;24.00;17.00;;;;;;;;6270350;22;45774;-72
2021/08/31 10:14:55;;;;;;;;;20.00;18.75;;;;;;;;6270871;22;45302;-71
2021/08/31 10:17:22;;;;;;;;;28.25;23.00;;;;;;;;6271072;22;45376;-73
2021/08/31 10:19:48;;;;;;;;;16.00;15.00;;;;;;;;6270075;22;46027;-72
2021/08/31 10:22:15;;;;;;;;;20.50;20.00;;;;;;;;6270237;22;45224;-72
2021/08/31 10:24:46;;;;;;;;;20.25;18.25;;;;;;;;6270754;22;45307;-72
2021/08/31 10:27:30;;;;;;;;;16.00;16.00;;;;;;;;6301700;22;45161;-71
2021/08/31 10:30:13;;;;;;;;;19.75;18.00;;;;;;;;6300289;22;45988;-72
2021/08/31 10:32:39;;;;;;;;;17.25;15.75;;;;;;;;6301516;22;45284;-72
2021/08/31 10:35:04;;;;;;;;;20.25;16.75;;;;;;;;6302550;22;45235;-73
2021/08/31 10:37:43;;;;;;;;;19.00;19.00;;;;;;;;6300946;22;45242;-74
2021/08/31 10:40:09;;;;;;;;;19.00;18.25;;;;;;;;6273391;22;47538;-72
2021/08/31 10:42:34;;;;;;;;;17.25;17.25;;;;;;;;6302364;22;45233;-73
2021/08/31 10:45:00;;;;;;;;;18.60;14.80;;;;;;;;6302284;22;45558;-73
2021/08/31 10:47:36;;;;;;;;;19.75;19.50;;;;;;;;6301375;22;45419;-73
2021/08/31 10:50:01;;;;;;;;;20.00;17.25;;;;;;;;6301145;22;46129;-73
2021/08/31 10:52:35;;;;;;;;;17.50;17.50;;;;;;;;6301984;22;45271;-72
2021/08/31 10:55:00;;;;;;;;;22.00;17.25;;;;;;;;6302604;22;45237;-72
2021/08/31 10:57:35;;;;;;;;;18.25;17.00;;;;;;;;6302292;22;45313;-72
2021/08/31 11:00:00;;;;;;;;;13.67;13.67;;;;;;;;6300990;22;45348;-72
2021/08/31 11:02:44;;;;;;;;;15.50;14.00;;;;;;;;6301802;22;45324;-72
2021/08/31 11:05:18;;;;;;;;;17.00;16.00;;;;;;;;6302640;22;45213;-72
2021/08/31 11:07:44;;;;;;;;;14.67;14.67;;;;;;;;6302298;22;45175;-73
2021/08/31 11:10:09;;;;;;;;;13.33;13.33;;;;;;;;6301247;22;46068;-72
2021/08/31 11:12:34;;;;;;;;;21.75;17.25;;;;;;;;6301256;22;45360;-74
2021/08/31 11:14:59;;;;;;;;;12.00;12.00;;;;;;;;6301541;22;45347;-72
2021/08/31 11:17:32;;;;;;;;;17.00;14.75;;;;;;;;6302156;22;45306;-72
2021/08/31 11:20:17;;;;;;;;;17.33;15.33;;;;;;;;6301108;22;47194;-72
2021/08/31 11:22:49;;;;;;;;;13.67;11.67;;;;;;;;6301806;22;45249;-73
2021/08/31 11:25:14;;;;;;;;;15.00;13.67;;;;;;;;6301709;22;45241;-73
2021/08/31 11:27:49;;;;;;;;;13.67;13.33;;;;;;;;6301151;22;45377;-73
2021/08/31 11:30:14;;;;;;;;;18.00;17.67;;;;;;;;6302162;22;45224;-73
2021/08/31 11:32:40;;;;;;;;;17.33;15.33;;;;;;;;6301251;22;45198;-72
2021/08/31 11:35:05;;;;;;;;;14.00;14.00;;;;;;;;6301975;22;45408;-72
2021/08/31 11:37:31;;;;;;;;;16.00;14.00;;;;;;;;6272868;22;45324;-74
2021/08/31 11:39:57;;;;;;;;;11.00;9.00;;;;;;;;6301993;22;45279;-73
2021/08/31 11:42:22;;;;;;;;;22.25;18.50;;;;;;;;6300865;22;45254;-73
2021/08/31 11:44:59;;;;;;;;;16.00;15.67;;;;;;;;6301871;22;45276;-72
2021/08/31 11:47:24;;;;;;;;;15.00;13.67;;;;;;;;6301860;22;45219;-72
2021/08/31 11:49:49;;;;;;;;;10.67;9.33;;;;;;;;6300363;22;46266;-72
2021/08/31 11:52:17;;;;;;;;;15.33;15.33;;;;;;;;6300633;22;45275;-72
2021/08/31 11:54:43;;;;;;;;;13.33;12.00;;;;;;;;6301969;22;45288;-72
2021/08/31 11:57:09;;;;;;;;;11.00;11.00;;;;;;;;6300597;22;45314;-72
2021/08/31 11:59:42;;;;;;;;;13.33;11.33;;;;;;;;6300891;22;45380;-73
2021/08/31 12:02:11;;;;;;;;;11.33;10.00;;;;;;;;6300873;22;45696;-73
2021/08/31 12:04:36;;;;;;;;;13.33;12.00;;;;;;;;6301522;22;45382;-73
2021/08/31 12:07:02;;;;;;;;;13.67;13.67;;;;;;;;6301762;22;45334;-73
2021/08/31 12:09:27;;;;;;;;;14.00;10.67;;;;;;;;6301153;22;47098;-72
2021/08/31 12:11:53;;;;;;;;;12.33;11.33;;;;;;;;6300814;22;45298;-72
2021/08/31 12:14:19;;;;;;;;;12.67;11.67;;;;;;;;6301591;22;45257;-73
2021/08/31 12:16:47;;;;;;;;;10.00;10.00;;;;;;;;6301066;22;45196;-73
2021/08/31 12:19:13;;;;;;;;;12.33;9.00;;;;;;;;6300967;22;46424;-73
2021/08/31 12:21:38;;;;;;;;;11.33;11.33;;;;;;;;6300966;22;45427;-74
2021/08/31 12:24:10;;;;;;;;;14.00;13.00;;;;;;;;6301665;22;45276;-73
2021/08/31 12:26:36;;;;;;;;;11.33;9.33;;;;;;;;6301865;22;45377;-73
2021/08/31 12:29:05;;;;;;;;;11.33;10.67;;;;;;;;6302728;22;46021;-72
2021/08/31 12:31:31;;;;;;;;;12.00;12.00;;;;;;;;6303003;22;45237;-72
2021/08/31 12:33:56;;;;;;;;;12.67;11.00;;;;;;;;6302607;22;45230;-73
2021/08/31 12:36:28;;;;;;;;;11.33;11.33;;;;;;;;6301830;22;45161;-73
2021/08/31 12:38:53;;;;;;;;;12.67;12.67;;;;;;;;6301869;22;45341;-73
2021/08/31 12:41:24;;;;;;;;;9.67;8.67;;;;;;;;6301705;22;45280;-72
2021/08/31 12:43:50;;;;;;;;;8.33;8.00;;;;;;;;6302321;22;45215;-72
2021/08/31 12:46:23;;;;;;;;;8.00;8.00;;;;;;;;6302582;22;45396;-72
2021/08/31 12:48:49;;;;;;;;;11.67;10.67;;;;;;;;6302121;22;47009;-72
2021/08/31 12:51:27;;;;;;;;;13.00;12.00;;;;;;;;6302488;22;45498;-72
2021/08/31 12:53:55;;;;;;;;;12.00;10.00;;;;;;;;6301556;22;45306;-73
2021/08/31 12:56:21;;;;;;;;;10.00;9.00;;;;;;;;6302263;22;45411;-71
2021/08/31 12:58:47;;;;;;;;;8.00;6.67;;;;;;;;6301571;22;47204;-72
2021/08/31 13:01:20;;;;;;;;;9.33;9.33;;;;;;;;6302104;22;45229;-72
2021/08/31 13:03:45;;;;;;;;;11.33;8.33;;;;;;;;6302296;22;45222;-73
2021/08/31 13:06:29;;;;;;;;;11.67;8.67;;;;;;;;6302951;22;45180;-72
2021/08/31 13:08:54;;;;;;;;;9.33;9.00;;;;;;;;6302067;22;47047;-73
2021/08/31 13:11:19;;;;;;;;;9.33;9.33;;;;;;;;6302717;22;45175;-72
2021/08/31 13:13:45;;;;;;;;;11.33;7.67;;;;;;;;6302983;22;45221;-73
2021/08/31 13:16:10;;;;;;;;;12.33;11.33;;;;;;;;6303613;22;45454;-73
2021/08/31 13:18:35;;;;;;;;;10.00;10.00;;;;;;;;6303013;22;45253;-73
2021/08/31 13:21:00;;;;;;;;;10.33;8.00;;;;;;;;6302473;22;45209;-73
2021/08/31 13:23:26;;;;;;;;;11.00;9.75;;;;;;;;6301762;22;45230;-73
2021/08/31 13:25:51;;;;;;;;;9.33;9.33;;;;;;;;6301889;22;45486;-72
2021/08/31 13:28:16;;;;;;;;;11.67;10.67;;;;;;;;6302156;22;46390;-71
2021/08/31 13:30:42;;;;;;;;;10.67;9.67;;;;;;;;6302084;22;45172;-73
2021/08/31 13:33:07;;;;;;;;;10.00;9.00;;;;;;;;6302296;22;45468;-71
2021/08/31 13:35:33;;;;;;;;;10.75;10.75;;;;;;;;6302672;22;45178;-72
2021/08/31 13:37:58;;;;;;;;;11.50;11.50;;;;;;;;6301886;22;45285;-72
2021/08/31 13:40:23;;;;;;;;;10.00;8.67;;;;;;;;6303115;22;45122;-72
2021/08/31 13:42:49;;;;;;;;;8.00;8.00;;;;;;;;6303257;22;45094;-72
2021/08/31 13:45:14;;;;;;;;;8.67;8.00;;;;;;;;6303249;22;45321;-73
2021/08/31 13:47:39;;;;;;;;;12.33;12.33;;;;;;;;6303283;22;45973;-74
2021/08/31 13:50:04;;;;;;;;;8.33;8.33;;;;;;;;6274815;22;46148;-73
2021/08/31 13:52:30;;;;;;;;;9.00;9.00;;;;;;;;6302286;22;45257;-73
2021/08/31 13:54:55;;;;;;;;;9.33;8.33;;;;;;;;6303030;22;45620;-73
2021/08/31 13:57:21;;;;;;;;;9.00;9.00;;;;;;;;6302449;22;46070;-73
2021/08/31 13:59:47;;;;;;;;;9.67;9.00;;;;;;;;6302466;22;45313;-72
2021/08/31 14:02:12;;;;;;;;;11.00;11.00;;;;;;;;6302798;22;45378;-73
2021/08/31 14:04:37;;;;;;;;;8.67;8.67;;;;;;;;6302949;22;45373;-73
2021/08/31 14:07:04;;;;;;;;;8.33;7.33;;;;;;;;6273545;22;47121;-73
2021/08/31 14:09:29;;;;;;;;;8.33;8.33;;;;;;;;6302500;22;45285;-73
2021/08/31 14:11:54;;;;;;;;;9.67;9.33;;;;;;;;6302398;22;45270;-73
2021/08/31 14:14:19;;;;;;;;;10.00;8.67;;;;;;;;6301605;22;45540;-73
2021/08/31 14:16:45;;;;;;;;;9.33;8.00;;;;;;;;6301825;22;46494;-75
2021/08/31 14:19:10;;;;;;;;;7.33;7.33;;;;;;;;6302148;22;45181;-74